sensor_id;sensor_type;location;lat;lon;timestamp;P1;durP1;ratioP1;P2;durP2;ratioP2
14088;SDS011;7120;52.890;6.040;2022-08-21T00:00:24;20.70;;;12.20;;
14088;SDS011;7120;52.890;6.040;2022-08-21T00:02:56;22.53;;;12.67;;
14088;SDS011;7120;52.890;6.040;2022-08-21T00:05:24;19.87;;;13.03;;
14088;SDS011;7120;52.890;6.040;2022-08-21T00:07:50;21.93;;;13.77;;
14088;SDS011;7120;52.890;6.040;2022-08-21T00:10:16;20.07;;;13.00;;
14088;SDS011;7120;52.890;6.040;2022-08-21T00:12:42;21.17;;;13.70;;
14088;SDS011;7120;52.890;6.040;2022-08-21T00:15:10;14.87;;;12.53;;
14088;SDS011;7120;52.890;6.040;2022-08-21T00:17:37;20.17;;;12.60;;
14088;SDS011;7120;52.890;6.040;2022-08-21T00:20:04;14.93;;;11.73;;
14088;SDS011;7120;52.890;6.040;2022-08-21T00:22:33;16.67;;;11.37;;
14088;SDS011;7120;52.890;6.040;2022-08-21T00:24:59;16.00;;;11.00;;
14088;SDS011;7120;52.890;6.040;2022-08-21T00:27:24;17.97;;;11.73;;
14088;SDS011;7120;52.890;6.040;2022-08-21T00:29:50;19.33;;;12.30;;
14088;SDS011;7120;52.890;6.040;2022-08-21T00:32:19;15.57;;;10.80;;
14088;SDS011;7120;52.890;6.040;2022-08-21T00:34:46;13.90;;;11.17;;
14088;SDS011;7120;52.890;6.040;2022-08-21T00:37:11;13.07;;;10.47;;
14088;SDS011;7120;52.890;6.040;2022-08-21T00:39:37;13.63;;;11.50;;
14088;SDS011;7120;52.890;6.040;2022-08-21T00:42:03;14.97;;;11.07;;
14088;SDS011;7120;52.890;6.040;2022-08-21T00:44:28;16.57;;;11.00;;
14088;SDS011;7120;52.890;6.040;2022-08-21T00:46:54;13.97;;;11.13;;
14088;SDS011;7120;52.890;6.040;2022-08-21T00:49:19;15.00;;;12.03;;
14088;SDS011;7120;52.890;6.040;2022-08-21T00:51:50;22.90;;;13.63;;
14088;SDS011;7120;52.890;6.040;2022-08-21T00:54:19;20.60;;;14.07;;
14088;SDS011;7120;52.890;6.040;2022-08-21T00:56:48;19.73;;;13.83;;
14088;SDS011;7120;52.890;6.040;2022-08-21T00:59:18;22.33;;;14.23;;
14088;SDS011;7120;52.890;6.040;2022-08-21T01:01:45;16.13;;;13.30;;
14088;SDS011;7120;52.890;6.040;2022-08-21T01:04:11;21.53;;;13.97;;
14088;SDS011;7120;52.890;6.040;2022-08-21T01:06:37;20.17;;;13.10;;
14088;SDS011;7120;52.890;6.040;2022-08-21T01:09:02;17.07;;;12.40;;
14088;SDS011;7120;52.890;6.040;2022-08-21T01:11:28;19.00;;;12.63;;
14088;SDS011;7120;52.890;6.040;2022-08-21T01:13:54;22.03;;;12.80;;
14088;SDS011;7120;52.890;6.040;2022-08-21T01:16:20;12.77;;;10.93;;
14088;SDS011;7120;52.890;6.040;2022-08-21T01:18:47;19.73;;;11.43;;
14088;SDS011;7120;52.890;6.040;2022-08-21T01:21:14;16.30;;;11.93;;
14088;SDS011;7120;52.890;6.040;2022-08-21T01:23:44;15.40;;;10.60;;
14088;SDS011;7120;52.890;6.040;2022-08-21T01:26:13;14.00;;;10.73;;
14088;SDS011;7120;52.890;6.040;2022-08-21T01:29:30;13.83;;;10.40;;
14088;SDS011;7120;52.890;6.040;2022-08-21T01:31:51;16.97;;;11.60;;
14088;SDS011;7120;52.890;6.040;2022-08-21T01:34:17;17.93;;;11.17;;
14088;SDS011;7120;52.890;6.040;2022-08-21T01:36:43;15.33;;;10.60;;
14088;SDS011;7120;52.890;6.040;2022-08-21T01:39:09;18.63;;;11.73;;
14088;SDS011;7120;52.890;6.040;2022-08-21T01:41:35;19.27;;;11.30;;
14088;SDS011;7120;52.890;6.040;2022-08-21T01:44:00;19.77;;;11.57;;
14088;SDS011;7120;52.890;6.040;2022-08-21T01:46:26;18.23;;;11.47;;
14088;SDS011;7120;52.890;6.040;2022-08-21T01:48:51;25.03;;;11.90;;
14088;SDS011;7120;52.890;6.040;2022-08-21T01:51:17;14.87;;;10.93;;
14088;SDS011;7120;52.890;6.040;2022-08-21T01:53:42;16.30;;;10.97;;
14088;SDS011;7120;52.890;6.040;2022-08-21T01:56:09;18.53;;;11.90;;
14088;SDS011;7120;52.890;6.040;2022-08-21T01:58:37;16.13;;;11.47;;
14088;SDS011;7120;52.890;6.040;2022-08-21T02:01:03;20.37;;;11.83;;
14088;SDS011;7120;52.890;6.040;2022-08-21T02:03:29;15.70;;;11.37;;
14088;SDS011;7120;52.890;6.040;2022-08-21T02:05:55;18.33;;;11.70;;
14088;SDS011;7120;52.890;6.040;2022-08-21T02:08:20;18.67;;;11.60;;
14088;SDS011;7120;52.890;6.040;2022-08-21T02:10:49;16.17;;;10.87;;
14088;SDS011;7120;52.890;6.040;2022-08-21T02:13:16;15.77;;;11.20;;
14088;SDS011;7120;52.890;6.040;2022-08-21T02:15:43;17.20;;;10.93;;
14088;SDS011;7120;52.890;6.040;2022-08-21T02:18:09;19.70;;;11.43;;
14088;SDS011;7120;52.890;6.040;2022-08-21T02:20:37;18.00;;;11.17;;
14088;SDS011;7120;52.890;6.040;2022-08-21T02:23:05;20.73;;;11.73;;
14088;SDS011;7120;52.890;6.040;2022-08-21T02:25:31;19.37;;;11.13;;
14088;SDS011;7120;52.890;6.040;2022-08-21T02:27:57;21.50;;;11.03;;
14088;SDS011;7120;52.890;6.040;2022-08-21T02:30:25;21.30;;;11.30;;
14088;SDS011;7120;52.890;6.040;2022-08-21T02:32:55;18.37;;;11.00;;
14088;SDS011;7120;52.890;6.040;2022-08-21T02:35:22;18.27;;;11.20;;
14088;SDS011;7120;52.890;6.040;2022-08-21T02:37:51;17.73;;;10.43;;
14088;SDS011;7120;52.890;6.040;2022-08-21T02:40:25;20.63;;;11.10;;
14088;SDS011;7120;52.890;6.040;2022-08-21T02:42:52;16.60;;;11.23;;
14088;SDS011;7120;52.890;6.040;2022-08-21T02:45:18;16.63;;;10.37;;
14088;SDS011;7120;52.890;6.040;2022-08-21T02:47:51;18.40;;;10.67;;
14088;SDS011;7120;52.890;6.040;2022-08-21T02:50:21;16.53;;;10.53;;
14088;SDS011;7120;52.890;6.040;2022-08-21T02:52:49;19.70;;;10.87;;
14088;SDS011;7120;52.890;6.040;2022-08-21T02:55:15;15.57;;;11.03;;
14088;SDS011;7120;52.890;6.040;2022-08-21T02:57:41;21.23;;;11.10;;
14088;SDS011;7120;52.890;6.040;2022-08-21T03:00:07;22.33;;;11.87;;
14088;SDS011;7120;52.890;6.040;2022-08-21T03:02:34;22.07;;;12.40;;
14088;SDS011;7120;52.890;6.040;2022-08-21T03:05:01;17.90;;;11.67;;
14088;SDS011;7120;52.890;6.040;2022-08-21T03:07:26;15.60;;;11.53;;
14088;SDS011;7120;52.890;6.040;2022-08-21T03:09:52;20.07;;;12.00;;
14088;SDS011;7120;52.890;6.040;2022-08-21T03:12:17;18.60;;;11.67;;
14088;SDS011;7120;52.890;6.040;2022-08-21T03:14:42;19.87;;;12.40;;
14088;SDS011;7120;52.890;6.040;2022-08-21T03:17:08;17.07;;;11.90;;
14088;SDS011;7120;52.890;6.040;2022-08-21T03:19:34;21.80;;;12.47;;
14088;SDS011;7120;52.890;6.040;2022-08-21T03:21:59;17.97;;;12.63;;
14088;SDS011;7120;52.890;6.040;2022-08-21T03:24:25;18.03;;;11.83;;
14088;SDS011;7120;52.890;6.040;2022-08-21T03:26:51;18.07;;;12.20;;
14088;SDS011;7120;52.890;6.040;2022-08-21T03:29:16;19.83;;;12.00;;
14088;SDS011;7120;52.890;6.040;2022-08-21T03:31:41;17.20;;;11.77;;
14088;SDS011;7120;52.890;6.040;2022-08-21T03:34:07;17.03;;;12.07;;
14088;SDS011;7120;52.890;6.040;2022-08-21T03:36:32;19.23;;;12.23;;
14088;SDS011;7120;52.890;6.040;2022-08-21T03:38:57;14.83;;;11.20;;
14088;SDS011;7120;52.890;6.040;2022-08-21T03:41:23;17.97;;;12.07;;
14088;SDS011;7120;52.890;6.040;2022-08-21T03:43:48;14.43;;;11.20;;
14088;SDS011;7120;52.890;6.040;2022-08-21T03:46:14;16.87;;;11.63;;
14088;SDS011;7120;52.890;6.040;2022-08-21T03:48:39;19.27;;;11.27;;
14088;SDS011;7120;52.890;6.040;2022-08-21T03:51:05;13.70;;;11.30;;
14088;SDS011;7120;52.890;6.040;2022-08-21T03:53:31;17.43;;;11.13;;
14088;SDS011;7120;52.890;6.040;2022-08-21T03:55:57;13.27;;;10.37;;
14088;SDS011;7120;52.890;6.040;2022-08-21T03:58:24;20.23;;;11.50;;
14088;SDS011;7120;52.890;6.040;2022-08-21T04:00:52;17.03;;;11.50;;
14088;SDS011;7120;52.890;6.040;2022-08-21T04:03:20;15.90;;;11.47;;
14088;SDS011;7120;52.890;6.040;2022-08-21T04:05:46;18.43;;;11.43;;
14088;SDS011;7120;52.890;6.040;2022-08-21T04:08:11;16.43;;;11.67;;
14088;SDS011;7120;52.890;6.040;2022-08-21T04:10:38;17.93;;;12.27;;
14088;SDS011;7120;52.890;6.040;2022-08-21T04:13:05;16.23;;;11.50;;
14088;SDS011;7120;52.890;6.040;2022-08-21T04:15:32;17.30;;;11.13;;
14088;SDS011;7120;52.890;6.040;2022-08-21T04:17:57;19.20;;;11.97;;
14088;SDS011;7120;52.890;6.040;2022-08-21T04:20:23;18.23;;;11.77;;
14088;SDS011;7120;52.890;6.040;2022-08-21T04:22:50;18.07;;;11.33;;
14088;SDS011;7120;52.890;6.040;2022-08-21T04:25:16;16.40;;;11.40;;
14088;SDS011;7120;52.890;6.040;2022-08-21T04:27:43;16.13;;;10.87;;
14088;SDS011;7120;52.890;6.040;2022-08-21T04:30:09;16.87;;;11.73;;
14088;SDS011;7120;52.890;6.040;2022-08-21T04:32:36;15.50;;;10.20;;
14088;SDS011;7120;52.890;6.040;2022-08-21T04:35:04;15.87;;;10.57;;
14088;SDS011;7120;52.890;6.040;2022-08-21T04:37:33;14.87;;;10.80;;
14088;SDS011;7120;52.890;6.040;2022-08-21T04:39:59;15.37;;;10.57;;
14088;SDS011;7120;52.890;6.040;2022-08-21T04:42:25;14.93;;;9.90;;
14088;SDS011;7120;52.890;6.040;2022-08-21T04:44:51;15.50;;;10.13;;
14088;SDS011;7120;52.890;6.040;2022-08-21T04:47:17;14.03;;;9.77;;
14088;SDS011;7120;52.890;6.040;2022-08-21T04:49:43;12.43;;;9.90;;
14088;SDS011;7120;52.890;6.040;2022-08-21T04:52:09;15.90;;;9.60;;
14088;SDS011;7120;52.890;6.040;2022-08-21T04:54:35;15.73;;;10.00;;
14088;SDS011;7120;52.890;6.040;2022-08-21T04:57:02;15.27;;;10.40;;
14088;SDS011;7120;52.890;6.040;2022-08-21T04:59:33;14.53;;;9.63;;
14088;SDS011;7120;52.890;6.040;2022-08-21T05:02:03;14.43;;;10.00;;
14088;SDS011;7120;52.890;6.040;2022-08-21T05:04:30;15.63;;;9.80;;
14088;SDS011;7120;52.890;6.040;2022-08-21T05:06:59;15.93;;;9.43;;
14088;SDS011;7120;52.890;6.040;2022-08-21T05:09:29;13.80;;;9.67;;
14088;SDS011;7120;52.890;6.040;2022-08-21T05:11:55;10.17;;;8.50;;
14088;SDS011;7120;52.890;6.040;2022-08-21T05:14:21;12.13;;;9.40;;
14088;SDS011;7120;52.890;6.040;2022-08-21T05:16:46;14.53;;;9.27;;
14088;SDS011;7120;52.890;6.040;2022-08-21T05:19:12;11.17;;;9.10;;
14088;SDS011;7120;52.890;6.040;2022-08-21T05:21:40;10.93;;;8.17;;
14088;SDS011;7120;52.890;6.040;2022-08-21T05:24:07;13.23;;;8.53;;
14088;SDS011;7120;52.890;6.040;2022-08-21T05:26:33;11.60;;;8.27;;
14088;SDS011;7120;52.890;6.040;2022-08-21T05:28:58;12.83;;;8.53;;
14088;SDS011;7120;52.890;6.040;2022-08-21T05:31:24;10.90;;;8.00;;
14088;SDS011;7120;52.890;6.040;2022-08-21T05:33:49;11.43;;;8.03;;
14088;SDS011;7120;52.890;6.040;2022-08-21T05:36:16;12.57;;;7.83;;
14088;SDS011;7120;52.890;6.040;2022-08-21T05:38:42;11.53;;;7.80;;
14088;SDS011;7120;52.890;6.040;2022-08-21T05:41:08;10.77;;;7.83;;
14088;SDS011;7120;52.890;6.040;2022-08-21T05:43:34;10.33;;;7.50;;
14088;SDS011;7120;52.890;6.040;2022-08-21T05:46:01;10.13;;;7.30;;
14088;SDS011;7120;52.890;6.040;2022-08-21T05:48:27;10.47;;;7.10;;
14088;SDS011;7120;52.890;6.040;2022-08-21T05:50:53;13.00;;;7.63;;
14088;SDS011;7120;52.890;6.040;2022-08-21T05:53:19;11.80;;;7.60;;
14088;SDS011;7120;52.890;6.040;2022-08-21T05:55:46;13.40;;;7.80;;
14088;SDS011;7120;52.890;6.040;2022-08-21T05:58:13;9.00;;;7.50;;
14088;SDS011;7120;52.890;6.040;2022-08-21T06:00:43;10.90;;;7.67;;
14088;SDS011;7120;52.890;6.040;2022-08-21T06:03:15;12.93;;;7.63;;
14088;SDS011;7120;52.890;6.040;2022-08-21T06:05:43;12.67;;;7.57;;
14088;SDS011;7120;52.890;6.040;2022-08-21T06:08:08;8.63;;;6.57;;
14088;SDS011;7120;52.890;6.040;2022-08-21T06:10:34;9.97;;;7.23;;
14088;SDS011;7120;52.890;6.040;2022-08-21T06:12:59;11.67;;;7.17;;
14088;SDS011;7120;52.890;6.040;2022-08-21T06:15:25;14.13;;;8.10;;
14088;SDS011;7120;52.890;6.040;2022-08-21T06:17:52;10.00;;;7.20;;
14088;SDS011;7120;52.890;6.040;2022-08-21T06:20:17;8.60;;;6.83;;
14088;SDS011;7120;52.890;6.040;2022-08-21T06:22:43;9.80;;;7.57;;
14088;SDS011;7120;52.890;6.040;2022-08-21T06:25:09;11.03;;;6.90;;
14088;SDS011;7120;52.890;6.040;2022-08-21T06:27:35;11.27;;;6.90;;
14088;SDS011;7120;52.890;6.040;2022-08-21T06:30:00;12.90;;;6.77;;
14088;SDS011;7120;52.890;6.040;2022-08-21T06:32:25;11.57;;;6.97;;
14088;SDS011;7120;52.890;6.040;2022-08-21T06:34:51;11.17;;;6.67;;
14088;SDS011;7120;52.890;6.040;2022-08-21T06:37:16;7.93;;;6.23;;
14088;SDS011;7120;52.890;6.040;2022-08-21T06:39:41;8.77;;;6.23;;
14088;SDS011;7120;52.890;6.040;2022-08-21T06:42:12;10.70;;;6.63;;
14088;SDS011;7120;52.890;6.040;2022-08-21T06:44:39;8.37;;;5.90;;
14088;SDS011;7120;52.890;6.040;2022-08-21T06:47:04;9.83;;;5.97;;
14088;SDS011;7120;52.890;6.040;2022-08-21T06:49:30;8.27;;;5.73;;
14088;SDS011;7120;52.890;6.040;2022-08-21T06:51:55;9.67;;;5.83;;
14088;SDS011;7120;52.890;6.040;2022-08-21T06:54:20;9.80;;;5.77;;
14088;SDS011;7120;52.890;6.040;2022-08-21T06:56:46;10.70;;;5.57;;
14088;SDS011;7120;52.890;6.040;2022-08-21T06:59:11;8.30;;;4.93;;
14088;SDS011;7120;52.890;6.040;2022-08-21T07:01:37;12.00;;;4.97;;
14088;SDS011;7120;52.890;6.040;2022-08-21T07:04:02;9.03;;;5.67;;
14088;SDS011;7120;52.890;6.040;2022-08-21T07:06:28;7.90;;;4.90;;
14088;SDS011;7120;52.890;6.040;2022-08-21T07:08:53;9.20;;;5.13;;
14088;SDS011;7120;52.890;6.040;2022-08-21T07:11:21;8.57;;;4.87;;
14088;SDS011;7120;52.890;6.040;2022-08-21T07:13:48;6.07;;;4.60;;
14088;SDS011;7120;52.890;6.040;2022-08-21T07:16:16;7.40;;;4.50;;
14088;SDS011;7120;52.890;6.040;2022-08-21T07:18:41;8.20;;;4.30;;
14088;SDS011;7120;52.890;6.040;2022-08-21T07:21:07;10.53;;;4.60;;
14088;SDS011;7120;52.890;6.040;2022-08-21T07:23:35;8.07;;;4.00;;
14088;SDS011;7120;52.890;6.040;2022-08-21T07:26:04;7.37;;;4.03;;
14088;SDS011;7120;52.890;6.040;2022-08-21T07:28:30;7.23;;;4.33;;
14088;SDS011;7120;52.890;6.040;2022-08-21T07:30:57;7.83;;;4.07;;
14088;SDS011;7120;52.890;6.040;2022-08-21T07:33:24;8.20;;;4.20;;
14088;SDS011;7120;52.890;6.040;2022-08-21T07:35:50;8.50;;;3.87;;
14088;SDS011;7120;52.890;6.040;2022-08-21T07:38:16;6.43;;;4.07;;
14088;SDS011;7120;52.890;6.040;2022-08-21T07:40:43;8.10;;;3.60;;
14088;SDS011;7120;52.890;6.040;2022-08-21T07:43:08;5.17;;;3.33;;
14088;SDS011;7120;52.890;6.040;2022-08-21T07:45:34;8.87;;;3.30;;
14088;SDS011;7120;52.890;6.040;2022-08-21T07:48:00;9.07;;;3.77;;
14088;SDS011;7120;52.890;6.040;2022-08-21T07:50:25;8.60;;;3.40;;
14088;SDS011;7120;52.890;6.040;2022-08-21T07:52:51;10.63;;;3.97;;
14088;SDS011;7120;52.890;6.040;2022-08-21T07:55:18;9.83;;;4.37;;
14088;SDS011;7120;52.890;6.040;2022-08-21T07:57:46;9.50;;;3.83;;
14088;SDS011;7120;52.890;6.040;2022-08-21T08:00:13;8.37;;;4.00;;
14088;SDS011;7120;52.890;6.040;2022-08-21T08:02:44;7.23;;;4.20;;
14088;SDS011;7120;52.890;6.040;2022-08-21T08:05:12;10.07;;;4.40;;
14088;SDS011;7120;52.890;6.040;2022-08-21T08:07:37;12.60;;;4.30;;
14088;SDS011;7120;52.890;6.040;2022-08-21T08:10:04;10.17;;;3.70;;
14088;SDS011;7120;52.890;6.040;2022-08-21T08:12:32;9.10;;;5.17;;
14088;SDS011;7120;52.890;6.040;2022-08-21T08:14:59;8.80;;;4.43;;
14088;SDS011;7120;52.890;6.040;2022-08-21T08:17:25;7.80;;;3.80;;
14088;SDS011;7120;52.890;6.040;2022-08-21T08:19:51;7.73;;;3.87;;
14088;SDS011;7120;52.890;6.040;2022-08-21T08:22:18;7.90;;;3.70;;
14088;SDS011;7120;52.890;6.040;2022-08-21T08:24:46;11.27;;;4.23;;
14088;SDS011;7120;52.890;6.040;2022-08-21T08:27:12;8.20;;;3.93;;
14088;SDS011;7120;52.890;6.040;2022-08-21T08:29:37;12.43;;;4.63;;
14088;SDS011;7120;52.890;6.040;2022-08-21T08:32:03;8.53;;;4.13;;
14088;SDS011;7120;52.890;6.040;2022-08-21T08:34:29;6.53;;;3.47;;
14088;SDS011;7120;52.890;6.040;2022-08-21T08:36:55;11.70;;;4.90;;
14088;SDS011;7120;52.890;6.040;2022-08-21T08:39:22;8.10;;;4.03;;
14088;SDS011;7120;52.890;6.040;2022-08-21T08:41:48;12.13;;;4.20;;
14088;SDS011;7120;52.890;6.040;2022-08-21T08:44:16;8.90;;;4.40;;
14088;SDS011;7120;52.890;6.040;2022-08-21T08:46:46;6.50;;;3.63;;
14088;SDS011;7120;52.890;6.040;2022-08-21T08:55:00;9.13;;;4.00;;
14088;SDS011;7120;52.890;6.040;2022-08-21T08:57:28;9.88;;;4.38;;
14088;SDS011;7120;52.890;6.040;2022-08-21T08:59:56;10.35;;;4.03;;
14088;SDS011;7120;52.890;6.040;2022-08-21T09:02:26;8.68;;;3.47;;
14088;SDS011;7120;52.890;6.040;2022-08-21T09:04:55;9.68;;;3.90;;
14088;SDS011;7120;52.890;6.040;2022-08-21T09:10:19;11.52;;;3.80;;
14088;SDS011;7120;52.890;6.040;2022-08-21T09:24:00;9.33;;;3.87;;
14088;SDS011;7120;52.890;6.040;2022-08-21T09:27:02;8.43;;;3.77;;
14088;SDS011;7120;52.890;6.040;2022-08-21T09:29:33;14.52;;;3.97;;
14088;SDS011;7120;52.890;6.040;2022-08-21T09:32:01;10.57;;;3.42;;
14088;SDS011;7120;52.890;6.040;2022-08-21T09:34:34;7.18;;;3.38;;
14088;SDS011;7120;52.890;6.040;2022-08-21T09:37:01;8.20;;;3.35;;
14088;SDS011;7120;52.890;6.040;2022-08-21T09:39:27;5.53;;;2.50;;
14088;SDS011;7120;52.890;6.040;2022-08-21T09:42:04;11.00;;;3.30;;
14088;SDS011;7120;52.890;6.040;2022-08-21T09:44:33;8.48;;;3.15;;
14088;SDS011;7120;52.890;6.040;2022-08-21T09:47:04;7.65;;;3.10;;
14088;SDS011;7120;52.890;6.040;2022-08-21T09:49:32;5.90;;;2.55;;
14088;SDS011;7120;52.890;6.040;2022-08-21T09:51:59;7.65;;;3.38;;
14088;SDS011;7120;52.890;6.040;2022-08-21T09:54:34;7.80;;;2.80;;
14088;SDS011;7120;52.890;6.040;2022-08-21T09:59:53;6.57;;;3.10;;
14088;SDS011;7120;52.890;6.040;2022-08-21T10:02:37;7.88;;;3.08;;
14088;SDS011;7120;52.890;6.040;2022-08-21T10:05:36;8.43;;;2.80;;
14088;SDS011;7120;52.890;6.040;2022-08-21T10:07:54;7.85;;;3.30;;
14088;SDS011;7120;52.890;6.040;2022-08-21T10:10:21;7.18;;;3.10;;
14088;SDS011;7120;52.890;6.040;2022-08-21T10:40:07;5.43;;;2.55;;
14088;SDS011;7120;52.890;6.040;2022-08-21T10:48:34;7.38;;;2.67;;
14088;SDS011;7120;52.890;6.040;2022-08-21T11:02:03;9.30;;;2.80;;
14088;SDS011;7120;52.890;6.040;2022-08-21T11:04:47;8.07;;;3.00;;
14088;SDS011;7120;52.890;6.040;2022-08-21T11:07:33;5.28;;;2.47;;
14088;SDS011;7120;52.890;6.040;2022-08-21T11:10:03;4.90;;;2.35;;
14088;SDS011;7120;52.890;6.040;2022-08-21T11:12:39;4.15;;;2.50;;
14088;SDS011;7120;52.890;6.040;2022-08-21T11:18:02;7.03;;;2.72;;
14088;SDS011;7120;52.890;6.040;2022-08-21T11:20:39;7.78;;;3.22;;
14088;SDS011;7120;52.890;6.040;2022-08-21T11:23:17;7.43;;;2.95;;
14088;SDS011;7120;52.890;6.040;2022-08-21T11:25:47;7.38;;;3.35;;
14088;SDS011;7120;52.890;6.040;2022-08-21T11:28:19;9.23;;;3.35;;
14088;SDS011;7120;52.890;6.040;2022-08-21T11:33:47;9.90;;;3.20;;
14088;SDS011;7120;52.890;6.040;2022-08-21T11:47:31;8.25;;;3.10;;
14088;SDS011;7120;52.890;6.040;2022-08-21T11:50:18;6.80;;;2.92;;
14088;SDS011;7120;52.890;6.040;2022-08-21T11:52:49;9.00;;;3.15;;
14088;SDS011;7120;52.890;6.040;2022-08-21T11:55:30;6.57;;;2.53;;
14088;SDS011;7120;52.890;6.040;2022-08-21T11:58:04;7.57;;;2.88;;
14088;SDS011;7120;52.890;6.040;2022-08-21T12:00:49;9.32;;;3.08;;
14088;SDS011;7120;52.890;6.040;2022-08-21T12:03:32;10.18;;;2.83;;
14088;SDS011;7120;52.890;6.040;2022-08-21T12:06:11;6.15;;;2.70;;
14088;SDS011;7120;52.890;6.040;2022-08-21T12:13:40;5.38;;;2.28;;
14088;SDS011;7120;52.890;6.040;2022-08-21T12:16:38;7.45;;;2.63;;
14088;SDS011;7120;52.890;6.040;2022-08-21T12:21:47;6.88;;;2.50;;
14088;SDS011;7120;52.890;6.040;2022-08-21T12:26:53;6.32;;;2.72;;
14088;SDS011;7120;52.890;6.040;2022-08-21T12:29:25;5.75;;;2.65;;
14088;SDS011;7120;52.890;6.040;2022-08-21T12:34:25;7.47;;;3.05;;
14088;SDS011;7120;52.890;6.040;2022-08-21T12:36:58;9.02;;;2.75;;
14088;SDS011;7120;52.890;6.040;2022-08-21T12:39:51;7.47;;;2.25;;
14088;SDS011;7120;52.890;6.040;2022-08-21T12:42:23;9.13;;;3.00;;
14088;SDS011;7120;52.890;6.040;2022-08-21T12:44:58;4.70;;;2.20;;
14088;SDS011;7120;52.890;6.040;2022-08-21T12:47:35;5.90;;;2.40;;
14088;SDS011;7120;52.890;6.040;2022-08-21T12:50:11;6.85;;;2.20;;
14088;SDS011;7120;52.890;6.040;2022-08-21T12:52:44;9.05;;;2.80;;
14088;SDS011;7120;52.890;6.040;2022-08-21T12:55:25;6.20;;;2.38;;
14088;SDS011;7120;52.890;6.040;2022-08-21T12:57:53;4.53;;;2.00;;
14088;SDS011;7120;52.890;6.040;2022-08-21T13:00:20;6.35;;;2.35;;
14088;SDS011;7120;52.890;6.040;2022-08-21T13:02:49;5.70;;;2.33;;
14088;SDS011;7120;52.890;6.040;2022-08-21T13:05:33;5.22;;;2.42;;
14088;SDS011;7120;52.890;6.040;2022-08-21T13:08:07;4.72;;;2.35;;
14088;SDS011;7120;52.890;6.040;2022-08-21T13:10:35;7.35;;;3.10;;
14088;SDS011;7120;52.890;6.040;2022-08-21T13:13:08;5.75;;;2.25;;
14088;SDS011;7120;52.890;6.040;2022-08-21T13:15:41;8.82;;;2.45;;
14088;SDS011;7120;52.890;6.040;2022-08-21T13:18:07;5.55;;;2.25;;
14088;SDS011;7120;52.890;6.040;2022-08-21T13:20:36;6.13;;;2.60;;
14088;SDS011;7120;52.890;6.040;2022-08-21T13:23:20;6.30;;;2.65;;
14088;SDS011;7120;52.890;6.040;2022-08-21T13:25:46;4.78;;;2.75;;
14088;SDS011;7120;52.890;6.040;2022-08-21T13:28:11;7.80;;;2.45;;
14088;SDS011;7120;52.890;6.040;2022-08-21T13:30:44;4.95;;;2.35;;
14088;SDS011;7120;52.890;6.040;2022-08-21T13:33:12;4.65;;;2.40;;
14088;SDS011;7120;52.890;6.040;2022-08-21T13:38:21;5.57;;;2.30;;
14088;SDS011;7120;52.890;6.040;2022-08-21T13:40:55;5.78;;;2.20;;
14088;SDS011;7120;52.890;6.040;2022-08-21T13:43:33;5.85;;;2.50;;
14088;SDS011;7120;52.890;6.040;2022-08-21T13:46:00;4.32;;;2.15;;
14088;SDS011;7120;52.890;6.040;2022-08-21T13:48:28;4.82;;;2.38;;
14088;SDS011;7120;52.890;6.040;2022-08-21T13:50:58;5.63;;;2.25;;
14088;SDS011;7120;52.890;6.040;2022-08-21T13:53:34;4.10;;;2.22;;
14088;SDS011;7120;52.890;6.040;2022-08-21T13:56:06;3.92;;;1.98;;
14088;SDS011;7120;52.890;6.040;2022-08-21T13:58:41;4.55;;;2.33;;
14088;SDS011;7120;52.890;6.040;2022-08-21T14:01:17;4.43;;;2.33;;
14088;SDS011;7120;52.890;6.040;2022-08-21T14:04:03;4.20;;;2.22;;
14088;SDS011;7120;52.890;6.040;2022-08-21T14:06:35;4.28;;;2.13;;
14088;SDS011;7120;52.890;6.040;2022-08-21T14:09:10;7.22;;;2.10;;
14088;SDS011;7120;52.890;6.040;2022-08-21T14:11:38;4.35;;;2.00;;
14088;SDS011;7120;52.890;6.040;2022-08-21T14:14:12;6.32;;;2.05;;
14088;SDS011;7120;52.890;6.040;2022-08-21T14:16:42;5.78;;;2.22;;
14088;SDS011;7120;52.890;6.040;2022-08-21T14:19:09;5.35;;;2.10;;
14088;SDS011;7120;52.890;6.040;2022-08-21T14:21:49;4.82;;;2.05;;
14088;SDS011;7120;52.890;6.040;2022-08-21T14:24:25;3.50;;;1.70;;
14088;SDS011;7120;52.890;6.040;2022-08-21T14:26:56;4.55;;;1.65;;
14088;SDS011;7120;52.890;6.040;2022-08-21T14:29:27;5.72;;;2.03;;
14088;SDS011;7120;52.890;6.040;2022-08-21T14:31:58;5.32;;;2.22;;
14088;SDS011;7120;52.890;6.040;2022-08-21T14:34:26;4.35;;;2.05;;
14088;SDS011;7120;52.890;6.040;2022-08-21T14:36:53;4.65;;;2.10;;
14088;SDS011;7120;52.890;6.040;2022-08-21T14:39:18;4.63;;;1.83;;
14088;SDS011;7120;52.890;6.040;2022-08-21T14:41:44;4.82;;;2.05;;
14088;SDS011;7120;52.890;6.040;2022-08-21T14:44:11;7.40;;;2.33;;
14088;SDS011;7120;52.890;6.040;2022-08-21T14:46:38;3.88;;;1.85;;
14088;SDS011;7120;52.890;6.040;2022-08-21T14:49:04;5.15;;;1.65;;
14088;SDS011;7120;52.890;6.040;2022-08-21T14:51:29;3.92;;;1.70;;
14088;SDS011;7120;52.890;6.040;2022-08-21T14:53:55;6.10;;;1.80;;
14088;SDS011;7120;52.890;6.040;2022-08-21T14:56:20;4.50;;;2.13;;
14088;SDS011;7120;52.890;6.040;2022-08-21T14:58:47;4.82;;;2.03;;
14088;SDS011;7120;52.890;6.040;2022-08-21T15:01:14;4.43;;;2.05;;
14088;SDS011;7120;52.890;6.040;2022-08-21T15:03:43;5.55;;;1.80;;
14088;SDS011;7120;52.890;6.040;2022-08-21T15:06:09;5.07;;;2.13;;
14088;SDS011;7120;52.890;6.040;2022-08-21T15:08:37;4.75;;;1.92;;
14088;SDS011;7120;52.890;6.040;2022-08-21T15:11:04;4.45;;;1.90;;
14088;SDS011;7120;52.890;6.040;2022-08-21T15:13:30;5.25;;;2.25;;
14088;SDS011;7120;52.890;6.040;2022-08-21T15:15:57;6.22;;;2.00;;
14088;SDS011;7120;52.890;6.040;2022-08-21T15:18:23;4.82;;;2.00;;
14088;SDS011;7120;52.890;6.040;2022-08-21T15:20:51;3.08;;;1.90;;
14088;SDS011;7120;52.890;6.040;2022-08-21T15:23:17;4.82;;;2.00;;
14088;SDS011;7120;52.890;6.040;2022-08-21T15:25:43;4.78;;;1.85;;
14088;SDS011;7120;52.890;6.040;2022-08-21T15:28:10;5.18;;;2.00;;
14088;SDS011;7120;52.890;6.040;2022-08-21T15:30:37;3.88;;;1.90;;
14088;SDS011;7120;52.890;6.040;2022-08-21T15:33:04;4.47;;;1.97;;
14088;SDS011;7120;52.890;6.040;2022-08-21T15:35:29;4.95;;;2.13;;
14088;SDS011;7120;52.890;6.040;2022-08-21T15:37:56;4.38;;;1.85;;
14088;SDS011;7120;52.890;6.040;2022-08-21T15:40:22;3.23;;;1.70;;
14088;SDS011;7120;52.890;6.040;2022-08-21T15:42:49;8.77;;;2.30;;
14088;SDS011;7120;52.890;6.040;2022-08-21T15:45:18;3.63;;;2.03;;
14088;SDS011;7120;52.890;6.040;2022-08-21T15:47:44;5.00;;;1.77;;
14088;SDS011;7120;52.890;6.040;2022-08-21T15:50:10;4.47;;;1.90;;
14088;SDS011;7120;52.890;6.040;2022-08-21T15:52:36;4.50;;;2.10;;
14088;SDS011;7120;52.890;6.040;2022-08-21T15:55:02;4.00;;;2.00;;
14088;SDS011;7120;52.890;6.040;2022-08-21T15:57:28;5.07;;;2.07;;
14088;SDS011;7120;52.890;6.040;2022-08-21T15:59:56;3.30;;;1.60;;
14088;SDS011;7120;52.890;6.040;2022-08-21T16:02:31;4.53;;;1.73;;
14088;SDS011;7120;52.890;6.040;2022-08-21T16:04:57;6.87;;;2.00;;
14088;SDS011;7120;52.890;6.040;2022-08-21T16:07:24;4.43;;;2.20;;
14088;SDS011;7120;52.890;6.040;2022-08-21T16:09:49;6.07;;;2.00;;
14088;SDS011;7120;52.890;6.040;2022-08-21T16:12:37;5.40;;;2.10;;
14088;SDS011;7120;52.890;6.040;2022-08-21T16:15:06;4.80;;;1.70;;
14088;SDS011;7120;52.890;6.040;2022-08-21T16:17:35;7.53;;;2.13;;
14088;SDS011;7120;52.890;6.040;2022-08-21T16:20:06;4.43;;;2.20;;
14088;SDS011;7120;52.890;6.040;2022-08-21T16:22:34;5.90;;;2.10;;
14088;SDS011;7120;52.890;6.040;2022-08-21T16:24:59;5.97;;;2.07;;
14088;SDS011;7120;52.890;6.040;2022-08-21T16:27:25;4.53;;;1.77;;
14088;SDS011;7120;52.890;6.040;2022-08-21T16:29:50;7.07;;;2.53;;
14088;SDS011;7120;52.890;6.040;2022-08-21T16:32:16;3.83;;;2.13;;
14088;SDS011;7120;52.890;6.040;2022-08-21T16:34:45;4.40;;;2.03;;
14088;SDS011;7120;52.890;6.040;2022-08-21T16:37:13;3.43;;;1.83;;